sensor_id;sensor_type;location;lat;lon;timestamp;temperature;humidity
29775;DHT22;16676;51.202;6.774;2023-07-22T00:00:38;24.90;43.80
29775;DHT22;16676;51.202;6.774;2023-07-22T00:04:39;24.90;43.80
29775;DHT22;16676;51.202;6.774;2023-07-22T00:08:43;24.90;43.80
29775;DHT22;16676;51.202;6.774;2023-07-22T00:12:45;24.90;43.90
29775;DHT22;16676;51.202;6.774;2023-07-22T00:16:47;24.80;43.90
29775;DHT22;16676;51.202;6.774;2023-07-22T00:20:49;24.80;43.90
29775;DHT22;16676;51.202;6.774;2023-07-22T00:24:52;24.80;44.00
29775;DHT22;16676;51.202;6.774;2023-07-22T00:28:54;24.80;43.90
29775;DHT22;16676;51.202;6.774;2023-07-22T00:32:56;24.80;44.00
29775;DHT22;16676;51.202;6.774;2023-07-22T00:36:58;24.80;43.90
29775;DHT22;16676;51.202;6.774;2023-07-22T00:41:01;24.80;43.90
29775;DHT22;16676;51.202;6.774;2023-07-22T00:45:06;24.80;44.00
29775;DHT22;16676;51.202;6.774;2023-07-22T00:49:09;24.80;43.90
29775;DHT22;16676;51.202;6.774;2023-07-22T00:53:11;24.70;43.90
29775;DHT22;16676;51.202;6.774;2023-07-22T00:57:15;24.70;43.90
29775;DHT22;16676;51.202;6.774;2023-07-22T01:01:17;24.70;44.00
29775;DHT22;16676;51.202;6.774;2023-07-22T01:05:19;24.70;44.10
29775;DHT22;16676;51.202;6.774;2023-07-22T01:09:21;24.70;44.00
29775;DHT22;16676;51.202;6.774;2023-07-22T01:13:24;24.60;44.00
29775;DHT22;16676;51.202;6.774;2023-07-22T01:17:26;24.70;44.10
29775;DHT22;16676;51.202;6.774;2023-07-22T01:21:29;24.60;44.00
29775;DHT22;16676;51.202;6.774;2023-07-22T01:25:32;24.60;44.00
29775;DHT22;16676;51.202;6.774;2023-07-22T01:29:34;24.60;44.00
29775;DHT22;16676;51.202;6.774;2023-07-22T01:33:36;24.60;43.90
29775;DHT22;16676;51.202;6.774;2023-07-22T01:37:40;24.60;43.90
29775;DHT22;16676;51.202;6.774;2023-07-22T01:41:44;24.60;44.00
29775;DHT22;16676;51.202;6.774;2023-07-22T01:45:46;24.60;43.90
29775;DHT22;16676;51.202;6.774;2023-07-22T01:49:48;24.60;44.00
29775;DHT22;16676;51.202;6.774;2023-07-22T01:53:50;24.60;43.90
29775;DHT22;16676;51.202;6.774;2023-07-22T01:57:54;24.60;43.90
29775;DHT22;16676;51.202;6.774;2023-07-22T02:01:55;24.50;43.90
29775;DHT22;16676;51.202;6.774;2023-07-22T02:06:01;24.50;43.80
29775;DHT22;16676;51.202;6.774;2023-07-22T02:10:04;24.50;43.80
29775;DHT22;16676;51.202;6.774;2023-07-22T02:14:08;24.50;43.80
29775;DHT22;16676;51.202;6.774;2023-07-22T02:18:09;24.50;43.80
29775;DHT22;16676;51.202;6.774;2023-07-22T02:22:11;24.50;43.80
29775;DHT22;16676;51.202;6.774;2023-07-22T02:26:13;24.50;44.30
29775;DHT22;16676;51.202;6.774;2023-07-22T02:30:17;24.50;43.80
29775;DHT22;16676;51.202;6.774;2023-07-22T02:34:20;24.50;43.80
29775;DHT22;16676;51.202;6.774;2023-07-22T02:38:22;24.40;43.80
29775;DHT22;16676;51.202;6.774;2023-07-22T02:42:24;24.40;43.70
29775;DHT22;16676;51.202;6.774;2023-07-22T02:46:28;24.40;43.80
29775;DHT22;16676;51.202;6.774;2023-07-22T02:50:30;24.40;44.50
29775;DHT22;16676;51.202;6.774;2023-07-22T02:54:39;24.40;43.70
29775;DHT22;16676;51.202;6.774;2023-07-22T02:58:41;24.30;43.60
29775;DHT22;16676;51.202;6.774;2023-07-22T03:02:45;24.30;43.70
29775;DHT22;16676;51.202;6.774;2023-07-22T03:06:47;24.30;43.70
29775;DHT22;16676;51.202;6.774;2023-07-22T03:10:49;24.30;43.70
29775;DHT22;16676;51.202;6.774;2023-07-22T03:14:51;24.30;43.80
29775;DHT22;16676;51.202;6.774;2023-07-22T03:18:54;24.30;43.80
29775;DHT22;16676;51.202;6.774;2023-07-22T03:22:56;24.30;43.80
29775;DHT22;16676;51.202;6.774;2023-07-22T03:26:58;24.30;43.80
29775;DHT22;16676;51.202;6.774;2023-07-22T03:31:00;24.20;43.80
29775;DHT22;16676;51.202;6.774;2023-07-22T03:35:04;24.20;43.80
29775;DHT22;16676;51.202;6.774;2023-07-22T03:39:08;24.20;43.80
29775;DHT22;16676;51.202;6.774;2023-07-22T03:43:10;24.20;43.80
29775;DHT22;16676;51.202;6.774;2023-07-22T03:47:12;24.20;43.90
29775;DHT22;16676;51.202;6.774;2023-07-22T03:51:16;24.20;43.90
29775;DHT22;16676;51.202;6.774;2023-07-22T03:55:18;24.20;43.90
29775;DHT22;16676;51.202;6.774;2023-07-22T03:59:20;24.20;43.90
29775;DHT22;16676;51.202;6.774;2023-07-22T04:03:22;24.20;44.00
29775;DHT22;16676;51.202;6.774;2023-07-22T04:07:25;24.20;44.00
29775;DHT22;16676;51.202;6.774;2023-07-22T04:11:27;24.10;43.90
29775;DHT22;16676;51.202;6.774;2023-07-22T04:15:30;24.10;44.00
29775;DHT22;16676;51.202;6.774;2023-07-22T04:19:32;24.10;44.00
29775;DHT22;16676;51.202;6.774;2023-07-22T04:23:35;24.10;43.90
29775;DHT22;16676;51.202;6.774;2023-07-22T04:27:38;24.10;44.00
29775;DHT22;16676;51.202;6.774;2023-07-22T04:31:40;24.10;44.00
29775;DHT22;16676;51.202;6.774;2023-07-22T04:35:42;24.10;44.00
29775;DHT22;16676;51.202;6.774;2023-07-22T04:39:48;24.10;44.00
29775;DHT22;16676;51.202;6.774;2023-07-22T04:43:51;24.10;44.00
29775;DHT22;16676;51.202;6.774;2023-07-22T04:47:53;24.10;44.10
29775;DHT22;16676;51.202;6.774;2023-07-22T04:51:55;24.00;44.00
29775;DHT22;16676;51.202;6.774;2023-07-22T04:55:58;24.00;44.00
29775;DHT22;16676;51.202;6.774;2023-07-22T05:00:00;24.10;44.10
29775;DHT22;16676;51.202;6.774;2023-07-22T05:04:04;24.00;44.10
29775;DHT22;16676;51.202;6.774;2023-07-22T05:08:06;24.10;44.10
29775;DHT22;16676;51.202;6.774;2023-07-22T05:12:10;24.00;44.10
29775;DHT22;16676;51.202;6.774;2023-07-22T05:16:12;24.00;44.10
29775;DHT22;16676;51.202;6.774;2023-07-22T05:20:14;24.00;44.10
29775;DHT22;16676;51.202;6.774;2023-07-22T05:24:16;24.00;44.20
29775;DHT22;16676;51.202;6.774;2023-07-22T05:28:19;24.00;44.20
29775;DHT22;16676;51.202;6.774;2023-07-22T05:32:21;24.00;44.20
29775;DHT22;16676;51.202;6.774;2023-07-22T05:36:23;24.00;44.20
29775;DHT22;16676;51.202;6.774;2023-07-22T05:40:25;24.00;44.20
29775;DHT22;16676;51.202;6.774;2023-07-22T05:44:28;24.00;44.10
29775;DHT22;16676;51.202;6.774;2023-07-22T05:48:30;24.00;44.20
29775;DHT22;16676;51.202;6.774;2023-07-22T05:52:32;24.00;44.20
29775;DHT22;16676;51.202;6.774;2023-07-22T05:56:33;24.00;44.20
29775;DHT22;16676;51.202;6.774;2023-07-22T06:00:37;24.00;44.20
29775;DHT22;16676;51.202;6.774;2023-07-22T06:04:39;24.00;44.30
29775;DHT22;16676;51.202;6.774;2023-07-22T06:08:41;24.00;44.30
29775;DHT22;16676;51.202;6.774;2023-07-22T06:12:43;24.00;44.20
29775;DHT22;16676;51.202;6.774;2023-07-22T06:16:46;24.00;44.20
29775;DHT22;16676;51.202;6.774;2023-07-22T06:20:48;24.00;44.30
29775;DHT22;16676;51.202;6.774;2023-07-22T06:24:50;24.00;44.30
29775;DHT22;16676;51.202;6.774;2023-07-22T06:28:52;24.00;44.20
29775;DHT22;16676;51.202;6.774;2023-07-22T06:32:56;24.00;44.20
29775;DHT22;16676;51.202;6.774;2023-07-22T06:36:57;24.00;44.20
29775;DHT22;16676;51.202;6.774;2023-07-22T06:40:59;24.00;44.20
29775;DHT22;16676;51.202;6.774;2023-07-22T06:45:01;24.00;44.20
29775;DHT22;16676;51.202;6.774;2023-07-22T06:49:05;24.00;44.10
29775;DHT22;16676;51.202;6.774;2023-07-22T06:53:07;24.00;44.20
29775;DHT22;16676;51.202;6.774;2023-07-22T06:57:10;24.00;44.20
29775;DHT22;16676;51.202;6.774;2023-07-22T07:01:12;24.00;44.20
29775;DHT22;16676;51.202;6.774;2023-07-22T07:05:15;24.00;44.20
29775;DHT22;16676;51.202;6.774;2023-07-22T07:09:18;24.00;44.20
29775;DHT22;16676;51.202;6.774;2023-07-22T07:13:20;24.00;44.20
29775;DHT22;16676;51.202;6.774;2023-07-22T07:17:22;24.00;44.20
29775;DHT22;16676;51.202;6.774;2023-07-22T07:21:25;24.00;44.10
29775;DHT22;16676;51.202;6.774;2023-07-22T07:25:27;24.10;44.20
29775;DHT22;16676;51.202;6.774;2023-07-22T07:29:29;24.00;44.20
29775;DHT22;16676;51.202;6.774;2023-07-22T07:33:31;24.00;44.30
29775;DHT22;16676;51.202;6.774;2023-07-22T07:37:34;24.00;44.40
29775;DHT22;16676;51.202;6.774;2023-07-22T07:41:36;24.00;44.30
29775;DHT22;16676;51.202;6.774;2023-07-22T07:45:39;24.00;44.40
29775;DHT22;16676;51.202;6.774;2023-07-22T07:49:41;24.00;44.40
29775;DHT22;16676;51.202;6.774;2023-07-22T07:53:45;24.00;44.40
29775;DHT22;16676;51.202;6.774;2023-07-22T07:57:47;24.00;44.40
29775;DHT22;16676;51.202;6.774;2023-07-22T08:01:49;24.00;44.40
29775;DHT22;16676;51.202;6.774;2023-07-22T08:05:51;24.00;44.40
29775;DHT22;16676;51.202;6.774;2023-07-22T08:09:54;24.10;44.50
29775;DHT22;16676;51.202;6.774;2023-07-22T08:13:57;24.10;44.60
29775;DHT22;16676;51.202;6.774;2023-07-22T08:17:59;24.10;44.50
29775;DHT22;16676;51.202;6.774;2023-07-22T08:22:02;24.20;44.50
29775;DHT22;16676;51.202;6.774;2023-07-22T08:26:05;24.20;44.40
29775;DHT22;16676;51.202;6.774;2023-07-22T08:30:08;24.20;44.40
29775;DHT22;16676;51.202;6.774;2023-07-22T08:34:11;24.30;44.40
29775;DHT22;16676;51.202;6.774;2023-07-22T08:38:13;24.30;44.30
29775;DHT22;16676;51.202;6.774;2023-07-22T08:42:18;24.30;44.20
29775;DHT22;16676;51.202;6.774;2023-07-22T08:46:22;24.30;44.20
29775;DHT22;16676;51.202;6.774;2023-07-22T08:50:30;24.40;44.30
29775;DHT22;16676;51.202;6.774;2023-07-22T08:54:33;24.40;44.30
29775;DHT22;16676;51.202;6.774;2023-07-22T08:58:38;24.40;44.20
29775;DHT22;16676;51.202;6.774;2023-07-22T09:02:41;24.40;44.20
29775;DHT22;16676;51.202;6.774;2023-07-22T09:06:44;24.40;44.20
29775;DHT22;16676;51.202;6.774;2023-07-22T09:10:46;24.50;44.10
29775;DHT22;16676;51.202;6.774;2023-07-22T09:14:50;24.50;44.10
29775;DHT22;16676;51.202;6.774;2023-07-22T09:18:55;24.50;44.10
29775;DHT22;16676;51.202;6.774;2023-07-22T09:22:57;24.50;44.00
29775;DHT22;16676;51.202;6.774;2023-07-22T09:27:00;24.50;44.00
29775;DHT22;16676;51.202;6.774;2023-07-22T09:31:03;24.60;43.90
29775;DHT22;16676;51.202;6.774;2023-07-22T09:35:06;24.50;43.90
29775;DHT22;16676;51.202;6.774;2023-07-22T09:39:10;24.50;43.90
29775;DHT22;16676;51.202;6.774;2023-07-22T09:43:16;24.60;43.80
29775;DHT22;16676;51.202;6.774;2023-07-22T09:47:19;24.60;43.70
29775;DHT22;16676;51.202;6.774;2023-07-22T09:51:21;24.60;43.50
29775;DHT22;16676;51.202;6.774;2023-07-22T09:55:24;24.60;43.40
29775;DHT22;16676;51.202;6.774;2023-07-22T09:59:29;24.60;43.30
29775;DHT22;16676;51.202;6.774;2023-07-22T10:03:33;24.70;43.20
29775;DHT22;16676;51.202;6.774;2023-07-22T10:07:37;24.70;43.10
29775;DHT22;16676;51.202;6.774;2023-07-22T10:11:41;24.70;43.00
29775;DHT22;16676;51.202;6.774;2023-07-22T10:15:43;24.70;43.00
29775;DHT22;16676;51.202;6.774;2023-07-22T10:19:49;24.80;43.00
29775;DHT22;16676;51.202;6.774;2023-07-22T10:23:52;24.80;42.80
29775;DHT22;16676;51.202;6.774;2023-07-22T10:27:54;24.90;42.70
29775;DHT22;16676;51.202;6.774;2023-07-22T10:31:56;24.90;42.60
29775;DHT22;16676;51.202;6.774;2023-07-22T10:36:05;24.90;42.50
29775;DHT22;16676;51.202;6.774;2023-07-22T10:40:18;24.90;42.40
29775;DHT22;16676;51.202;6.774;2023-07-22T10:44:20;25.00;42.50
29775;DHT22;16676;51.202;6.774;2023-07-22T10:48:25;25.00;42.40
29775;DHT22;16676;51.202;6.774;2023-07-22T10:52:43;25.00;42.30
29775;DHT22;16676;51.202;6.774;2023-07-22T10:56:46;25.10;42.30
29775;DHT22;16676;51.202;6.774;2023-07-22T11:00:48;25.10;42.20
29775;DHT22;16676;51.202;6.774;2023-07-22T11:04:49;25.10;42.00
29775;DHT22;16676;51.202;6.774;2023-07-22T11:08:53;25.20;41.80
29775;DHT22;16676;51.202;6.774;2023-07-22T11:12:55;25.20;41.50
29775;DHT22;16676;51.202;6.774;2023-07-22T11:16:58;25.20;41.60
29775;DHT22;16676;51.202;6.774;2023-07-22T11:21:01;25.20;41.50
29775;DHT22;16676;51.202;6.774;2023-07-22T11:25:05;25.20;41.30
29775;DHT22;16676;51.202;6.774;2023-07-22T11:29:08;25.30;41.30
29775;DHT22;16676;51.202;6.774;2023-07-22T11:33:10;25.30;41.30
29775;DHT22;16676;51.202;6.774;2023-07-22T11:37:12;25.30;41.00
29775;DHT22;16676;51.202;6.774;2023-07-22T11:41:18;25.40;41.00
29775;DHT22;16676;51.202;6.774;2023-07-22T11:45:20;25.30;41.00
29775;DHT22;16676;51.202;6.774;2023-07-22T11:49:23;25.40;41.00
29775;DHT22;16676;51.202;6.774;2023-07-22T11:53:26;25.40;40.90
29775;DHT22;16676;51.202;6.774;2023-07-22T11:57:30;25.40;40.90
29775;DHT22;16676;51.202;6.774;2023-07-22T12:01:32;25.40;41.00
29775;DHT22;16676;51.202;6.774;2023-07-22T12:05:35;25.40;40.90
29775;DHT22;16676;51.202;6.774;2023-07-22T12:09:38;25.40;41.00
29775;DHT22;16676;51.202;6.774;2023-07-22T12:13:41;25.40;41.00
29775;DHT22;16676;51.202;6.774;2023-07-22T12:17:47;25.40;40.90
29775;DHT22;16676;51.202;6.774;2023-07-22T12:21:50;25.50;41.00
29775;DHT22;16676;51.202;6.774;2023-07-22T12:25:51;25.50;40.90
29775;DHT22;16676;51.202;6.774;2023-07-22T12:29:56;25.50;40.90
29775;DHT22;16676;51.202;6.774;2023-07-22T12:33:58;25.50;40.90
29775;DHT22;16676;51.202;6.774;2023-07-22T12:38:00;25.60;40.80
29775;DHT22;16676;51.202;6.774;2023-07-22T12:42:02;25.60;40.60
29775;DHT22;16676;51.202;6.774;2023-07-22T12:46:05;25.60;40.60
29775;DHT22;16676;51.202;6.774;2023-07-22T12:50:08;25.60;40.60
29775;DHT22;16676;51.202;6.774;2023-07-22T12:54:10;25.70;40.70
29775;DHT22;16676;51.202;6.774;2023-07-22T12:58:13;25.60;40.80
29775;DHT22;16676;51.202;6.774;2023-07-22T13:02:17;25.60;40.80
29775;DHT22;16676;51.202;6.774;2023-07-22T13:06:19;25.70;40.80
29775;DHT22;16676;51.202;6.774;2023-07-22T13:10:22;25.70;40.80
29775;DHT22;16676;51.202;6.774;2023-07-22T13:14:26;25.70;40.50
29775;DHT22;16676;51.202;6.774;2023-07-22T13:18:29;25.70;40.60
29775;DHT22;16676;51.202;6.774;2023-07-22T13:22:31;25.70;40.40
29775;DHT22;16676;51.202;6.774;2023-07-22T13:26:34;25.70;40.10
29775;DHT22;16676;51.202;6.774;2023-07-22T13:30:36;25.70;40.00
29775;DHT22;16676;51.202;6.774;2023-07-22T13:34:39;25.70;39.90
29775;DHT22;16676;51.202;6.774;2023-07-22T13:38:41;25.70;39.80
29775;DHT22;16676;51.202;6.774;2023-07-22T13:42:43;25.70;39.60
29775;DHT22;16676;51.202;6.774;2023-07-22T13:46:45;25.70;39.30
29775;DHT22;16676;51.202;6.774;2023-07-22T13:50:49;25.70;39.30
29775;DHT22;16676;51.202;6.774;2023-07-22T13:54:51;25.80;39.00
29775;DHT22;16676;51.202;6.774;2023-07-22T13:58:54;25.70;39.00
29775;DHT22;16676;51.202;6.774;2023-07-22T14:02:56;25.70;38.90
29775;DHT22;16676;51.202;6.774;2023-07-22T14:07:00;25.80;38.80
29775;DHT22;16676;51.202;6.774;2023-07-22T14:11:02;25.80;38.70
29775;DHT22;16676;51.202;6.774;2023-07-22T14:15:05;25.80;38.90
29775;DHT22;16676;51.202;6.774;2023-07-22T14:19:07;25.80;38.80
29775;DHT22;16676;51.202;6.774;2023-07-22T14:23:11;25.80;38.80
29775;DHT22;16676;51.202;6.774;2023-07-22T14:27:13;25.80;38.80
29775;DHT22;16676;51.202;6.774;2023-07-22T14:31:15;25.70;38.80
29775;DHT22;16676;51.202;6.774;2023-07-22T14:35:17;25.80;39.00
29775;DHT22;16676;51.202;6.774;2023-07-22T14:39:20;25.80;38.90
29775;DHT22;16676;51.202;6.774;2023-07-22T14:43:22;25.80;38.90
29775;DHT22;16676;51.202;6.774;2023-07-22T14:47:24;25.80;38.80
29775;DHT22;16676;51.202;6.774;2023-07-22T14:51:26;25.80;38.90
29775;DHT22;16676;51.202;6.774;2023-07-22T14:55:30;25.80;38.80
29775;DHT22;16676;51.202;6.774;2023-07-22T14:59:32;25.80;38.80
29775;DHT22;16676;51.202;6.774;2023-07-22T15:03:34;25.80;38.70
29775;DHT22;16676;51.202;6.774;2023-07-22T15:07:36;25.80;38.70
29775;DHT22;16676;51.202;6.774;2023-07-22T15:11:39;25.80;38.70
29775;DHT22;16676;51.202;6.774;2023-07-22T15:15:41;25.80;38.90
29775;DHT22;16676;51.202;6.774;2023-07-22T15:19:43;25.80;38.80
29775;DHT22;16676;51.202;6.774;2023-07-22T15:23:45;25.80;38.90
29775;DHT22;16676;51.202;6.774;2023-07-22T15:27:48;25.80;38.90
29775;DHT22;16676;51.202;6.774;2023-07-22T15:31:50;25.80;38.90
29775;DHT22;16676;51.202;6.774;2023-07-22T15:35:53;25.80;38.90
29775;DHT22;16676;51.202;6.774;2023-07-22T15:39:55;25.80;38.90
29775;DHT22;16676;51.202;6.774;2023-07-22T15:43:59;25.80;39.00
29775;DHT22;16676;51.202;6.774;2023-07-22T15:48:01;25.80;38.90
29775;DHT22;16676;51.202;6.774;2023-07-22T15:52:03;25.80;38.90
29775;DHT22;16676;51.202;6.774;2023-07-22T15:56:06;25.80;38.90
29775;DHT22;16676;51.202;6.774;2023-07-22T16:00:11;25.80;38.90
29775;DHT22;16676;51.202;6.774;2023-07-22T16:04:13;25.80;39.00
29775;DHT22;16676;51.202;6.774;2023-07-22T16:08:15;25.80;38.90
29775;DHT22;16676;51.202;6.774;2023-07-22T16:12:17;25.70;39.00
29775;DHT22;16676;51.202;6.774;2023-07-22T16:16:21;25.80;39.00
29775;DHT22;16676;51.202;6.774;2023-07-22T16:20:22;25.80;38.90
29775;DHT22;16676;51.202;6.774;2023-07-22T16:24:24;25.80;39.00
29775;DHT22;16676;51.202;6.774;2023-07-22T16:28:27;25.80;39.20
29775;DHT22;16676;51.202;6.774;2023-07-22T16:32:30;25.80;39.20
29775;DHT22;16676;51.202;6.774;2023-07-22T16:36:32;25.80;39.10
29775;DHT22;16676;51.202;6.774;2023-07-22T16:40:34;25.80;39.30
29775;DHT22;16676;51.202;6.774;2023-07-22T16:44:35;25.80;39.10
29775;DHT22;16676;51.202;6.774;2023-07-22T16:48:39;25.70;39.10
29775;DHT22;16676;51.202;6.774;2023-07-22T16:52:41;25.80;39.30
29775;DHT22;16676;51.202;6.774;2023-07-22T16:56:43;25.70;39.30
29775;DHT22;16676;51.202;6.774;2023-07-22T17:00:45;25.80;39.50
29775;DHT22;16676;51.202;6.774;2023-07-22T17:04:49;25.70;39.30
29775;DHT22;16676;51.202;6.774;2023-07-22T17:08:51;25.70;39.30
29775;DHT22;16676;51.202;6.774;2023-07-22T17:12:53;25.70;39.20
29775;DHT22;16676;51.202;6.774;2023-07-22T17:16:55;25.70;39.40
29775;DHT22;16676;51.202;6.774;2023-07-22T17:20:58;25.70;40.10
29775;DHT22;16676;51.202;6.774;2023-07-22T17:25:00;25.70;39.40
29775;DHT22;16676;51.202;6.774;2023-07-22T17:29:02;25.70;39.60
29775;DHT22;16676;51.202;6.774;2023-07-22T17:33:04;25.70;39.60
29775;DHT22;16676;51.202;6.774;2023-07-22T17:37:09;25.70;39.80
29775;DHT22;16676;51.202;6.774;2023-07-22T17:41:11;25.70;39.80
29775;DHT22;16676;51.202;6.774;2023-07-22T17:45:13;25.70;39.80
29775;DHT22;16676;51.202;6.774;2023-07-22T17:49:15;25.70;39.90
29775;DHT22;16676;51.202;6.774;2023-07-22T17:53:18;25.70;39.90
29775;DHT22;16676;51.202;6.774;2023-07-22T17:57:20;25.70;40.00
29775;DHT22;16676;51.202;6.774;2023-07-22T18:01:21;25.70;40.00
29775;DHT22;16676;51.202;6.774;2023-07-22T18:05:23;25.70;40.10
29775;DHT22;16676;51.202;6.774;2023-07-22T18:09:29;25.70;40.20
29775;DHT22;16676;51.202;6.774;2023-07-22T18:13:31;25.60;40.10
29775;DHT22;16676;51.202;6.774;2023-07-22T18:17:32;25.60;40.20
29775;DHT22;16676;51.202;6.774;2023-07-22T18:21:34;25.60;40.20
29775;DHT22;16676;51.202;6.774;2023-07-22T18:25:37;25.60;40.10
29775;DHT22;16676;51.202;6.774;2023-07-22T18:29:40;25.60;40.30
29775;DHT22;16676;51.202;6.774;2023-07-22T18:33:41;25.60;40.30
29775;DHT22;16676;51.202;6.774;2023-07-22T18:37:43;25.60;40.30
29775;DHT22;16676;51.202;6.774;2023-07-22T18:41:47;25.60;40.30
29775;DHT22;16676;51.202;6.774;2023-07-22T18:45:48;25.60;40.30
29775;DHT22;16676;51.202;6.774;2023-07-22T18:49:50;25.60;40.40
29775;DHT22;16676;51.202;6.774;2023-07-22T18:53:52;25.60;40.40
29775;DHT22;16676;51.202;6.774;2023-07-22T18:57:55;25.60;40.40
29775;DHT22;16676;51.202;6.774;2023-07-22T19:01:58;25.60;40.40
29775;DHT22;16676;51.202;6.774;2023-07-22T19:06:00;25.60;40.50
29775;DHT22;16676;51.202;6.774;2023-07-22T19:10:02;25.60;40.50
29775;DHT22;16676;51.202;6.774;2023-07-22T19:14:05;25.60;40.60
29775;DHT22;16676;51.202;6.774;2023-07-22T19:18:07;25.50;40.50
29775;DHT22;16676;51.202;6.774;2023-07-22T19:22:09;25.50;40.50
29775;DHT22;16676;51.202;6.774;2023-07-22T19:26:11;25.50;40.60
29775;DHT22;16676;51.202;6.774;2023-07-22T19:30:14;25.50;40.60
29775;DHT22;16676;51.202;6.774;2023-07-22T19:34:16;25.50;40.60
29775;DHT22;16676;51.202;6.774;2023-07-22T19:38:18;25.50;40.60
29775;DHT22;16676;51.202;6.774;2023-07-22T19:42:20;25.50;40.60
29775;DHT22;16676;51.202;6.774;2023-07-22T19:46:24;25.50;40.60
29775;DHT22;16676;51.202;6.774;2023-07-22T19:50:26;25.50;40.70
29775;DHT22;16676;51.202;6.774;2023-07-22T19:54:28;25.50;40.70
29775;DHT22;16676;51.202;6.774;2023-07-22T19:58:29;25.40;40.60
29775;DHT22;16676;51.202;6.774;2023-07-22T20:02:33;25.40;40.70
29775;DHT22;16676;51.202;6.774;2023-07-22T20:06:35;25.40;40.70
29775;DHT22;16676;51.202;6.774;2023-07-22T20:10:37;25.40;40.70
29775;DHT22;16676;51.202;6.774;2023-07-22T20:14:39;25.40;40.70
29775;DHT22;16676;51.202;6.774;2023-07-22T20:18:42;25.40;40.80
29775;DHT22;16676;51.202;6.774;2023-07-22T20:22:44;25.40;40.80
29775;DHT22;16676;51.202;6.774;2023-07-22T20:26:46;25.40;40.90
29775;DHT22;16676;51.202;6.774;2023-07-22T20:30:48;25.40;40.90
29775;DHT22;16676;51.202;6.774;2023-07-22T20:34:52;25.40;41.00
29775;DHT22;16676;51.202;6.774;2023-07-22T20:38:56;25.40;41.10
29775;DHT22;16676;51.202;6.774;2023-07-22T20:42:57;25.40;41.10
29775;DHT22;16676;51.202;6.774;2023-07-22T20:46:59;25.40;41.10
29775;DHT22;16676;51.202;6.774;2023-07-22T20:51:07;25.40;41.10
29775;DHT22;16676;51.202;6.774;2023-07-22T20:55:08;25.40;41.20
29775;DHT22;16676;51.202;6.774;2023-07-22T20:59:10;25.40;41.20
29775;DHT22;16676;51.202;6.774;2023-07-22T21:03:12;25.30;41.20
29775;DHT22;16676;51.202;6.774;2023-07-22T21:07:15;25.30;41.30
29775;DHT22;16676;51.202;6.774;2023-07-22T21:11:17;25.30;41.30
29775;DHT22;16676;51.202;6.774;2023-07-22T21:15:19;25.30;42.00
29775;DHT22;16676;51.202;6.774;2023-07-22T21:19:21;25.30;41.40
29775;DHT22;16676;51.202;6.774;2023-07-22T21:23:24;25.30;41.50
29775;DHT22;16676;51.202;6.774;2023-07-22T21:27:26;25.30;41.50
29775;DHT22;16676;51.202;6.774;2023-07-22T21:31:28;25.20;41.60
29775;DHT22;16676;51.202;6.774;2023-07-22T21:35:34;25.20;41.60
29775;DHT22;16676;51.202;6.774;2023-07-22T21:39:37;25.20;41.60
29775;DHT22;16676;51.202;6.774;2023-07-22T21:43:39;25.30;41.70
29775;DHT22;16676;51.202;6.774;2023-07-22T21:47:41;25.20;41.70
29775;DHT22;16676;51.202;6.774;2023-07-22T21:51:43;25.20;41.70
29775;DHT22;16676;51.202;6.774;2023-07-22T21:55:46;25.20;41.70
29775;DHT22;16676;51.202;6.774;2023-07-22T21:59:48;25.20;41.70
29775;DHT22;16676;51.202;6.774;2023-07-22T22:03:50;25.20;41.80
29775;DHT22;16676;51.202;6.774;2023-07-22T22:07:52;25.20;41.90
29775;DHT22;16676;51.202;6.774;2023-07-22T22:11:55;25.20;41.90
29775;DHT22;16676;51.202;6.774;2023-07-22T22:15:57;25.20;41.90
29775;DHT22;16676;51.202;6.774;2023-07-22T22:19:59;25.20;42.00
29775;DHT22;16676;51.202;6.774;2023-07-22T22:24:01;25.20;42.00
29775;DHT22;16676;51.202;6.774;2023-07-22T22:28:04;25.20;42.00
29775;DHT22;16676;51.202;6.774;2023-07-22T22:32:07;25.20;42.00
29775;DHT22;16676;51.202;6.774;2023-07-22T22:36:09;25.20;42.10
29775;DHT22;16676;51.202;6.774;2023-07-22T22:40:11;25.20;42.20
29775;DHT22;16676;51.202;6.774;2023-07-22T22:44:14;25.20;42.30
29775;DHT22;16676;51.202;6.774;2023-07-22T22:48:16;25.20;42.30
29775;DHT22;16676;51.202;6.774;2023-07-22T22:52:18;25.20;42.50
29775;DHT22;16676;51.202;6.774;2023-07-22T22:56:20;25.20;42.70
29775;DHT22;16676;51.202;6.774;2023-07-22T23:00:23;25.20;42.80
29775;DHT22;16676;51.202;6.774;2023-07-22T23:04:25;25.20;42.90
29775;DHT22;16676;51.202;6.774;2023-07-22T23:08:27;25.20;42.90
29775;DHT22;16676;51.202;6.774;2023-07-22T23:12:29;25.10;43.00
29775;DHT22;16676;51.202;6.774;2023-07-22T23:16:33;25.20;43.20
29775;DHT22;16676;51.202;6.774;2023-07-22T23:20:35;25.10;43.10
29775;DHT22;16676;51.202;6.774;2023-07-22T23:24:37;25.10;43.20
29775;DHT22;16676;51.202;6.774;2023-07-22T23:28:39;25.20;43.40
29775;DHT22;16676;51.202;6.774;2023-07-22T23:32:43;25.10;43.50
29775;DHT22;16676;51.202;6.774;2023-07-22T23:36:45;25.10;43.60
29775;DHT22;16676;51.202;6.774;2023-07-22T23:40:47;25.10;43.70
29775;DHT22;16676;51.202;6.774;2023-07-22T23:44:49;25.10;43.80
29775;DHT22;16676;51.202;6.774;2023-07-22T23:48:53;25.10;43.70
29775;DHT22;16676;51.202;6.774;2023-07-22T23:52:55;25.10;43.70
29775;DHT22;16676;51.202;6.774;2023-07-22T23:56:56;25.20;43.90
